Time;durP1;ratioP1;P1;durP2;ratioP2;P2;SDS_P1;SDS_P2;PMS_P1;PMS_P2;Temp;Humidity;BMP_temperature;BMP_pressure;BME280_temperature;BME280_humidity;BME280_pressure;Samples;Min_cycle;Max_cycle;Signal;HPM_P1;HPM_P2
2022/09/12 00:01:31;;;;;;;5.05;4.75;;;;;;;12.87;91.62;101825.28;5089464;28;20045;-83
2022/09/12 00:04:00;;;;;;;5.15;4.75;;;;;;;12.83;91.52;101824.66;5074236;28;20060;-83
2022/09/12 00:06:30;;;;;;;5.68;5.18;;;;;;;12.80;91.33;101824.75;5074176;28;20052;-83
2022/09/12 00:08:59;;;;;;;6.05;5.60;;;;;;;12.77;91.47;101815.69;5072995;28;20041;-83
2022/09/12 00:11:25;;;;;;;6.07;5.50;;;;;;;12.74;91.37;101816.53;5074422;28;20099;-83
2022/09/12 00:13:56;;;;;;;5.57;5.22;;;;;;;12.67;91.27;101816.75;5074405;28;20076;-82
2022/09/12 00:16:24;;;;;;;5.30;4.90;;;;;;;12.66;91.65;101812.59;5072675;28;20482;-82
2022/09/12 00:18:52;;;;;;;8.73;5.55;;;;;;;12.67;91.30;101806.06;5074153;28;20041;-83
2022/09/12 00:21:20;;;;;;;5.85;5.45;;;;;;;12.68;91.33;101802.22;5074681;28;20045;-82
2022/09/12 00:23:47;;;;;;;6.18;5.68;;;;;;;12.66;91.81;101804.56;5074129;28;20506;-82
2022/09/12 00:26:14;;;;;;;5.90;5.40;;;;;;;12.62;91.85;101795.91;5073397;28;20489;-82
2022/09/12 00:28:41;;;;;;;5.80;5.40;;;;;;;12.59;91.76;101799.44;5073486;28;20082;-82
2022/09/12 00:31:16;;;;;;;5.82;5.32;;;;;;;12.57;91.66;101785.75;5073989;28;20490;-82
2022/09/12 00:33:43;;;;;;;5.45;4.95;;;;;;;12.55;92.29;101791.53;5089477;28;20056;-82
2022/09/12 00:36:14;;;;;;;5.72;5.32;;;;;;;12.53;92.34;101790.47;5072479;28;20132;-82
2022/09/12 00:38:41;;;;;;;5.18;4.82;;;;;;;12.49;92.04;101787.88;5089330;28;20057;-81
2022/09/12 00:41:17;;;;;;;7.07;5.22;;;;;;;12.44;92.22;101788.41;5089041;28;20043;-81
2022/09/12 00:44:22;;;;;;;5.25;4.75;;;;;;;12.42;91.77;101787.34;5073681;28;20490;-81
2022/09/12 00:46:51;;;;;;;5.75;5.32;;;;;;;12.37;92.26;101782.56;5057594;28;20136;-82
2022/09/12 00:49:44;;;;;;;5.85;5.45;;;;;;;12.34;92.17;101789.50;5072266;28;20048;-82
2022/09/12 00:52:14;;;;;;;6.15;5.75;;;;;;;12.29;91.84;101788.09;5089414;28;20111;-82
2022/09/12 00:54:49;;;;;;;6.88;6.28;;;;;;;12.21;92.43;101784.13;5073757;28;20552;-81
2022/09/12 00:57:18;;;;;;;9.00;5.75;;;;;;;12.17;92.31;101778.16;5072430;28;20505;-82
2022/09/12 00:59:51;;;;;;;5.45;5.05;;;;;;;12.16;92.14;101783.91;5088590;28;20522;-82
2022/09/12 01:02:17;;;;;;;8.02;5.30;;;;;;;12.11;92.15;101782.50;5089361;28;20041;-82
2022/09/12 01:04:44;;;;;;;7.18;5.30;;;;;;;12.11;91.97;101785.19;5073364;28;20060;-82
2022/09/12 01:07:11;;;;;;;5.68;5.18;;;;;;;12.11;91.64;101781.75;5089221;28;20514;-82
2022/09/12 01:09:39;;;;;;;5.40;5.10;;;;;;;12.10;92.26;101775.69;5056629;28;20042;-82
2022/09/12 01:12:06;;;;;;;5.88;5.47;;;;;;;12.10;92.05;101774.94;5051083;28;20695;-81
2022/09/12 01:14:33;;;;;;;6.47;5.88;;;;;;;12.06;92.13;101780.34;5051629;28;20051;-81
2022/09/12 01:17:00;;;;;;;6.20;5.72;;;;;;;12.02;92.22;101774.38;5052324;28;20042;-81
2022/09/12 01:19:41;;;;;;;6.10;5.55;;;;;;;12.01;92.25;101780.88;5051911;28;20107;-82
2022/09/12 01:22:24;;;;;;;7.20;5.97;;;;;;;11.96;92.27;101776.84;5053127;28;20048;-81
2022/09/12 01:25:26;;;;;;;7.05;6.00;;;;;;;11.94;92.19;101773.09;5052791;28;20051;-81
2022/09/12 01:28:23;;;;;;;6.20;5.60;;;;;;;11.92;92.11;101773.53;5067709;28;20136;-81
2022/09/12 01:31:03;;;;;;;6.88;6.22;;;;;;;11.91;91.87;101765.94;5053029;28;20049;-81
2022/09/12 01:33:35;;;;;;;6.68;6.07;;;;;;;11.90;92.49;101759.84;5052973;28;20049;-80
2022/09/12 01:36:19;;;;;;;6.53;5.93;;;;;;;11.87;92.31;101765.28;5068349;28;20120;-82
2022/09/12 01:38:51;;;;;;;6.50;6.00;;;;;;;11.88;92.75;101758.78;5053142;28;20080;-81
2022/09/12 01:41:32;;;;;;;6.35;5.75;;;;;;;11.87;92.37;101763.38;5052601;28;20833;-82
2022/09/12 01:44:11;;;;;;;8.10;6.40;;;;;;;11.83;92.30;101757.38;5052998;28;20124;-81
2022/09/12 01:46:41;;;;;;;5.85;5.35;;;;;;;11.83;92.12;101748.63;5068277;28;20271;-81
2022/09/12 01:49:18;;;;;;;5.68;5.28;;;;;;;11.83;92.04;101748.63;5050979;28;20597;-81
2022/09/12 01:51:56;;;;;;;7.55;5.88;;;;;;;11.79;92.74;101748.72;5052763;28;20565;-81
2022/09/12 01:54:53;;;;;;;7.40;6.28;;;;;;;11.76;92.62;101746.13;5052738;28;20072;-82
2022/09/12 01:57:29;;;;;;;5.97;5.50;;;;;;;11.74;92.31;101743.88;5051635;28;20172;-81
2022/09/12 02:00:00;;;;;;;6.25;5.65;;;;;;;11.70;92.67;101738.63;5051025;28;20081;-82
2022/09/12 02:02:34;;;;;;;;;;;;;;;11.71;92.25;101734.03;5052601;28;20421;-81
2022/09/12 02:05:08;;;;;;;6.47;5.97;;;;;;;11.67;92.23;101728.06;5051652;28;20404;-82
2022/09/12 02:07:43;;;;;;;6.63;6.13;;;;;;;11.66;92.25;101734.56;5050894;28;20494;-82
2022/09/12 02:10:18;;;;;;;6.90;6.30;;;;;;;11.62;92.18;101725.91;5050333;28;20499;-82
2022/09/12 02:12:56;;;;;;;7.07;6.35;;;;;;;11.60;92.21;101720.25;5050685;28;20136;-81
2022/09/12 02:15:31;;;;;;;7.20;6.60;;;;;;;11.55;92.47;101716.19;5052331;28;20667;-82
2022/09/12 02:18:03;;;;;;;7.65;6.95;;;;;;;11.54;92.37;101730.69;5067760;28;20117;-82
2022/09/12 02:20:35;;;;;;;7.15;6.63;;;;;;;11.52;92.41;101722.38;5052258;28;20067;-82
2022/09/12 02:23:30;;;;;;;8.32;7.47;;;;;;;11.50;92.17;101722.03;5052436;28;20676;-82
2022/09/12 02:26:02;;;;;;;7.32;6.70;;;;;;;11.45;92.60;101714.56;5051843;28;20117;-82
2022/09/12 02:28:33;;;;;;;7.63;7.03;;;;;;;11.44;92.69;101715.72;5050868;28;20051;-81
2022/09/12 02:31:22;;;;;;;6.82;6.32;;;;;;;11.41;92.25;101711.22;5052407;28;20045;-81
2022/09/12 02:34:07;;;;;;;7.10;6.50;;;;;;;11.37;92.00;101713.25;5052259;28;20048;-81
2022/09/12 02:36:38;;;;;;;7.45;6.78;;;;;;;11.38;92.31;101712.06;5067649;28;20049;-82
2022/09/12 02:39:05;;;;;;;11.65;7.85;;;;;;;11.35;92.44;101713.66;5051613;28;20558;-82
2022/09/12 02:41:32;;;;;;;7.85;6.70;;;;;;;11.32;92.56;101711.09;5051967;28;20045;-82
2022/09/12 02:43:58;;;;;;;7.15;6.38;;;;;;;11.29;92.40;101703.94;5051972;28;20048;-82
2022/09/12 02:46:36;;;;;;;7.82;6.82;;;;;;;11.26;92.48;101699.44;5052025;28;20045;-83
2022/09/12 02:49:03;;;;;;;8.73;6.70;;;;;;;11.28;92.68;101697.09;5053394;28;20052;-83
2022/09/12 02:51:30;;;;;;;6.88;6.30;;;;;;;11.28;92.75;101695.19;5055259;28;20059;-83
2022/09/12 02:53:56;;;;;;;7.18;6.30;;;;;;;11.24;92.63;101694.53;5054835;28;20073;-83
2022/09/12 02:56:27;;;;;;;7.53;5.80;;;;;;;11.20;93.47;101693.88;5070707;28;20493;-83
2022/09/12 02:58:57;;;;;;;8.00;6.05;;;;;;;11.20;92.95;101698.44;5055184;28;20057;-83
2022/09/12 03:02:26;;;;;;;8.85;7.40;;;;;;;11.09;93.46;101690.00;5070901;28;20534;-83
2022/09/12 03:05:02;;;;;;;6.85;6.25;;;;;;;11.05;93.13;101684.75;5012732;28;20256;-83
2022/09/12 03:07:37;;;;;;;10.48;6.47;;;;;;;11.05;93.27;101684.00;5013088;28;20050;-82
2022/09/12 03:10:14;;;;;;;8.98;6.80;;;;;;;11.07;93.25;101679.00;5012717;28;20069;-82
2022/09/12 03:13:06;;;;;;;7.45;6.85;;;;;;;11.10;93.31;101686.16;5013188;28;20598;-82
2022/09/12 03:15:53;;;;;;;7.38;6.75;;;;;;;11.05;93.30;101681.34;5004850;28;20061;-83
2022/09/12 03:18:47;;;;;;;7.50;6.90;;;;;;;11.00;93.54;101679.94;5013447;28;20060;-82
2022/09/12 03:21:19;;;;;;;8.05;7.32;;;;;;;10.98;93.97;101687.59;5012948;28;20198;-82
2022/09/12 03:24:08;;;;;;;7.80;6.93;;;;;;;10.99;93.74;101681.09;5012385;28;20053;-82
2022/09/12 03:26:38;;;;;;;10.45;7.07;;;;;;;10.95;93.85;101681.19;5012927;28;20054;-81
2022/09/12 03:29:07;;;;;;;8.55;7.38;;;;;;;10.92;94.27;101683.94;5012819;28;20076;-81
2022/09/12 03:31:33;;;;;;;14.35;9.00;;;;;;;10.86;93.88;101683.69;5012789;28;20078;-81
2022/09/12 03:34:00;;;;;;;10.77;9.02;;;;;;;10.86;94.02;101672.28;5012507;28;20500;-81
2022/09/12 03:36:28;;;;;;;9.55;8.60;;;;;;;10.84;93.70;101675.38;5041644;28;20049;-81
2022/09/12 03:38:55;;;;;;;11.88;8.98;;;;;;;10.85;93.92;101676.84;5069728;28;20133;-81
2022/09/12 03:41:21;;;;;;;11.15;9.43;;;;;;;10.89;93.62;101676.78;5070177;28;20052;-84
2022/09/12 03:43:48;;;;;;;12.10;9.48;;;;;;;10.87;93.89;101671.88;5054430;28;20132;-84
2022/09/12 03:46:14;;;;;;;12.65;9.95;;;;;;;10.87;93.89;101671.88;5054942;28;20046;-81
2022/09/12 03:48:41;;;;;;;11.85;10.65;;;;;;;10.86;93.82;101673.03;5054612;28;20050;-84
2022/09/12 03:51:09;;;;;;;12.82;10.02;;;;;;;10.85;93.78;101668.88;5069916;28;20084;-81
2022/09/12 03:53:36;;;;;;;11.70;10.40;;;;;;;10.86;94.05;101669.63;5053820;28;20107;-81
2022/09/12 03:56:09;;;;;;;12.50;10.02;;;;;;;10.85;94.26;101665.47;5054280;28;20084;-81
2022/09/12 03:58:36;;;;;;;13.75;9.90;;;;;;;10.81;94.08;101654.13;5069746;28;20055;-81
2022/09/12 04:01:11;;;;;;;11.93;10.70;;;;;;;10.82;94.22;101658.31;5054313;28;20229;-81
2022/09/12 04:03:39;;;;;;;12.27;9.90;;;;;;;10.81;94.58;101660.22;5069235;28;20053;-81
2022/09/12 04:06:07;;;;;;;13.43;9.80;;;;;;;10.82;94.66;101653.72;5053627;28;20430;-81
2022/09/12 04:08:35;;;;;;;13.13;9.85;;;;;;;10.81;94.60;101649.56;5054129;28;20046;-81
2022/09/12 04:11:07;;;;;;;12.40;9.88;;;;;;;10.82;94.86;101650.31;5054203;28;20541;-80
2022/09/12 04:13:35;;;;;;;12.02;9.43;;;;;;;10.81;94.74;101649.56;5069515;28;20049;-83
2022/09/12 04:16:03;;;;;;;10.93;9.50;;;;;;;10.77;95.17;101654.25;5053968;28;20045;-80
2022/09/12 04:18:31;;;;;;;12.43;9.23;;;;;;;10.72;94.98;101657.41;5054036;28;20581;-81
2022/09/12 04:20:58;;;;;;;14.70;9.40;;;;;;;10.69;95.09;101656.34;5053533;28;20056;-80
2022/09/12 04:23:24;;;;;;;16.40;10.57;;;;;;;10.68;95.20;101660.16;5053873;28;20096;-81
2022/09/12 04:25:59;;;;;;;11.77;10.23;;;;;;;10.66;95.05;101659.84;5053816;28;20048;-81
2022/09/12 04:28:27;;;;;;;12.82;11.07;;;;;;;10.67;95.84;101656.00;5053923;28;20128;-80
2022/09/12 04:30:55;;;;;;;12.00;10.70;;;;;;;10.72;95.22;101652.09;5054054;28;20508;-80
2022/09/12 04:33:21;;;;;;;11.82;10.52;;;;;;;10.75;95.38;101655.84;5053746;28;20080;-81
2022/09/12 04:35:49;;;;;;;13.57;10.75;;;;;;;10.75;95.50;101653.91;5051618;28;20146;-84
2022/09/12 04:38:15;;;;;;;11.75;10.60;;;;;;;10.79;95.39;101656.50;5052506;28;20502;-84
2022/09/12 04:40:41;;;;;;;12.57;10.73;;;;;;;10.79;95.66;101648.50;5053414;28;20045;-81
2022/09/12 04:43:08;;;;;;;15.05;10.65;;;;;;;10.80;95.52;101650.72;5053625;28;20512;-84
2022/09/12 04:45:39;;;;;;;12.40;10.75;;;;;;;10.83;95.86;101660.53;5053679;28;20548;-89
2022/09/12 04:48:06;;;;;;;12.55;10.23;;;;;;;10.83;95.88;101657.13;5052326;28;20509;-87
2022/09/12 04:50:32;;;;;;;13.60;11.25;;;;;;;10.84;96.53;101645.31;5053112;28;20113;-86
2022/09/12 04:52:59;;;;;;;11.15;9.95;;;;;;;10.86;96.41;101650.97;5069119;28;20124;-87
2022/09/12 04:55:25;;;;;;;17.98;10.68;;;;;;;10.90;96.59;101651.63;5053254;28;20139;-84
2022/09/12 04:57:52;;;;;;;11.73;10.25;;;;;;;10.92;96.34;101654.63;5051721;28;20060;-85
2022/09/12 05:00:18;;;;;;;15.95;9.93;;;;;;;10.94;96.53;101654.97;5051890;28;20141;-83
2022/09/12 05:02:45;;;;;;;13.25;10.13;;;;;;;10.96;96.30;101650.72;5052822;28;20041;-77
2022/09/12 05:05:11;;;;;;;14.23;10.70;;;;;;;10.99;96.23;101651.78;5053311;28;20500;-81
2022/09/12 05:07:38;;;;;;;13.13;10.27;;;;;;;11.02;96.29;101653.63;5053083;28;20084;-81
2022/09/12 05:10:05;;;;;;;14.07;10.75;;;;;;;11.05;96.36;101657.34;5051788;28;20421;-81
2022/09/12 05:12:31;;;;;;;13.10;10.35;;;;;;;11.06;96.33;101642.88;5052644;28;20051;-85
2022/09/12 05:14:58;;;;;;;13.68;10.15;;;;;;;11.08;96.36;101640.53;5053148;28;20048;-86
2022/09/12 05:17:24;;;;;;;13.63;9.98;;;;;;;11.13;96.22;101645.34;5051840;28;20048;-85
2022/09/12 05:19:51;;;;;;;12.40;10.55;;;;;;;11.16;96.58;101647.19;5067984;28;20064;-84
2022/09/12 05:22:17;;;;;;;11.02;9.82;;;;;;;11.17;96.30;101641.44;5052790;28;20077;-82
2022/09/12 05:24:43;;;;;;;12.38;10.82;;;;;;;11.18;96.46;101639.50;5053150;28;20060;-82
2022/09/12 05:27:15;;;;;;;15.05;9.50;;;;;;;11.18;96.19;101644.84;5053566;28;20037;-81
2022/09/12 05:29:42;;;;;;;13.13;9.48;;;;;;;11.17;96.04;101654.00;5052999;28;20132;-81
2022/09/12 05:32:08;;;;;;;13.02;10.10;;;;;;;11.20;96.39;101650.47;5051581;28;20132;-81
2022/09/12 05:34:36;;;;;;;15.48;10.23;;;;;;;11.23;95.97;101646.97;5052245;28;20100;-81
2022/09/12 05:37:03;;;;;;;11.32;10.00;;;;;;;11.28;96.08;101643.78;5052415;28;20041;-81
2022/09/12 05:39:29;;;;;;;10.18;9.18;;;;;;;11.29;96.71;101631.97;5068194;28;20069;-82
2022/09/12 05:41:55;;;;;;;11.20;10.07;;;;;;;11.32;96.34;101633.78;5052654;28;20080;-82
2022/09/12 05:44:23;;;;;;;14.32;9.70;;;;;;;11.33;96.55;101638.69;5052666;28;20124;-81
2022/09/12 05:46:52;;;;;;;18.25;10.55;;;;;;;11.33;96.53;101646.69;5052579;28;20112;-81
2022/09/12 05:49:20;;;;;;;14.52;10.05;;;;;;;11.28;96.40;101647.19;5067613;28;20113;-81
2022/09/12 05:51:46;;;;;;;14.20;10.48;;;;;;;11.33;96.76;101632.59;5067703;28;20077;-81
2022/09/12 05:54:16;;;;;;;13.32;10.82;;;;;;;11.38;96.66;101628.69;5052707;28;20056;-81
2022/09/12 05:56:43;;;;;;;15.95;10.93;;;;;;;11.38;97.05;101639.34;5068006;28;20065;-81
2022/09/12 05:59:11;;;;;;;15.82;11.25;;;;;;;11.38;97.03;101642.00;5067972;28;20425;-82
2022/09/12 06:01:38;;;;;;;15.70;11.63;;;;;;;11.38;97.18;101642.75;5067515;28;20053;-84
2022/09/12 06:04:05;;;;;;;14.93;11.70;;;;;;;11.35;96.97;101636.34;5051488;28;20080;-79
2022/09/12 06:06:36;;;;;;;13.68;11.32;;;;;;;11.38;97.28;101640.09;5067681;28;20067;-81
2022/09/12 06:09:04;;;;;;;14.25;10.95;;;;;;;11.42;96.97;101638.09;5052399;28;20049;-81
2022/09/12 06:11:33;;;;;;;12.05;10.48;;;;;;;11.46;97.16;101643.31;5050842;28;20046;-80
2022/09/12 06:14:00;;;;;;;17.23;11.85;;;;;;;11.48;97.09;101640.97;5052250;28;20046;-77
2022/09/12 06:16:29;;;;;;;14.05;10.65;;;;;;;11.57;98.09;101639.19;5052141;28;20038;-76
2022/09/12 06:19:01;;;;;;;12.73;10.73;;;;;;;11.64;98.00;101638.22;5050188;28;20295;-85
2022/09/12 06:21:33;;;;;;;13.75;11.63;;;;;;;11.66;97.44;101646.53;5052234;28;20501;-84
2022/09/12 06:24:00;;;;;;;18.23;13.02;;;;;;;11.68;97.73;101646.88;5051187;28;20075;-84
2022/09/12 06:26:28;;;;;;;18.10;12.80;;;;;;;11.74;97.57;101652.44;5052146;28;20052;-85
2022/09/12 06:28:55;;;;;;;14.88;11.82;;;;;;;11.78;97.27;101647.78;5052166;28;20124;-86
2022/09/12 06:31:25;;;;;;;21.23;14.45;;;;;;;11.85;97.87;101644.91;5051911;28;20053;-84
2022/09/12 06:33:53;;;;;;;25.98;15.18;;;;;;;12.06;97.53;101646.91;5051795;28;20045;-83
2022/09/12 06:36:21;;;;;;;18.48;13.80;;;;;;;12.12;96.86;101658.56;5052393;28;20506;-84
2022/09/12 06:38:52;;;;;;;17.60;14.00;;;;;;;12.31;96.63;101643.50;5052536;28;20132;-85
2022/09/12 06:41:18;;;;;;;19.67;14.32;;;;;;;12.77;96.47;101647.38;5053538;28;20042;-88
2022/09/12 06:43:45;;;;;;;23.38;15.90;;;;;;;13.06;96.05;101647.16;5052440;28;20127;-86
2022/09/12 06:46:11;;;;;;;25.50;17.55;;;;;;;13.07;95.19;101639.88;5052161;28;20050;-88
2022/09/12 06:48:38;;;;;;;23.88;17.55;;;;;;;13.04;95.38;101641.50;5052346;28;20055;-87
2022/09/12 06:51:13;;;;;;;33.13;17.92;;;;;;;13.09;95.49;101642.88;5052413;28;20045;-84
2022/09/12 06:53:43;;;;;;;31.70;20.25;;;;;;;13.10;95.83;101639.00;5052517;28;20557;-84
2022/09/12 06:56:12;;;;;;;35.35;22.35;;;;;;;13.29;96.35;101643.31;5052228;28;20477;-84
2022/09/12 06:58:40;;;;;;;37.17;21.98;;;;;;;13.40;96.13;101635.66;5052185;28;20525;-85
2022/09/12 07:01:16;;;;;;;40.22;24.17;;;;;;;13.51;96.40;101633.34;5051818;28;20050;-82
2022/09/12 07:03:47;;;;;;;37.10;24.65;;;;;;;13.69;96.34;101632.69;5051560;28;20057;-83
2022/09/12 07:06:16;;;;;;;43.50;26.95;;;;;;;13.87;96.09;101622.06;5052541;28;20113;-85
2022/09/12 07:08:43;;;;;;;42.88;25.48;;;;;;;14.08;95.61;101633.13;5051736;28;20059;-83
2022/09/12 07:11:21;;;;;;;39.40;25.80;;;;;;;14.23;95.28;101626.78;5052277;28;20047;-84
2022/09/12 07:13:50;;;;;;;43.92;26.25;;;;;;;14.32;95.00;101632.19;5051930;28;20056;-87
2022/09/12 07:16:17;;;;;;;44.63;25.65;;;;;;;14.45;94.93;101629.38;5051603;28;20459;-84
2022/09/12 07:18:53;;;;;;;41.72;25.48;;;;;;;14.63;94.71;101628.66;5052296;28;20164;-86
2022/09/12 07:21:20;;;;;;;47.63;26.25;;;;;;;14.74;94.01;101628.97;5052049;28;20071;-84
2022/09/12 07:23:48;;;;;;;40.28;25.35;;;;;;;14.88;93.73;101636.41;5052021;28;20116;-84
2022/09/12 07:26:15;;;;;;;38.80;26.55;;;;;;;14.93;93.14;101635.81;5056715;28;20128;-83
2022/09/12 07:28:42;;;;;;;43.33;26.15;;;;;;;15.00;93.69;101635.50;5071792;28;20511;-84
2022/09/12 07:31:12;;;;;;;42.03;25.95;;;;;;;15.13;93.63;101631.94;5071547;28;20041;-86
2022/09/12 07:33:39;;;;;;;42.38;25.75;;;;;;;15.40;92.88;101628.44;5071816;28;20524;-85
2022/09/12 07:36:10;;;;;;;38.35;27.33;;;;;;;15.60;91.46;101637.50;5076289;28;20477;-79
2022/09/12 07:38:37;;;;;;;45.33;27.27;;;;;;;15.75;91.41;101634.19;5075832;28;20045;-93
2022/09/12 07:41:19;;;;;;;42.45;27.23;;;;;;;15.83;90.87;101628.03;5075324;28;20045;-93
2022/09/12 07:43:47;;;;;;;41.13;27.98;;;;;;;15.94;89.83;101625.59;5075629;28;20539;-88
2022/09/12 07:46:13;;;;;;;40.42;27.45;;;;;;;15.98;89.60;101628.88;5090815;28;20041;-87
2022/09/12 07:48:40;;;;;;;42.25;27.33;;;;;;;16.04;89.48;101631.66;5064814;28;20169;-87
2022/09/12 07:51:09;;;;;;;35.58;25.52;;;;;;;16.24;89.08;101631.09;5055332;28;20122;-87
2022/09/12 07:53:38;;;;;;;42.38;27.58;;;;;;;16.42;88.85;101630.97;5054737;28;20529;-87
2022/09/12 07:56:07;;;;;;;41.08;26.95;;;;;;;16.56;88.37;101634.94;5055081;28;20507;-88
2022/09/12 07:58:35;;;;;;;41.17;26.95;;;;;;;16.69;86.96;101638.16;5053921;28;20045;-87
2022/09/12 08:01:03;;;;;;;40.67;25.65;;;;;;;16.70;87.36;101639.63;5054964;28;20046;-87
2022/09/12 08:03:30;;;;;;;38.35;24.27;;;;;;;16.85;87.43;101643.09;5052852;28;20129;-86
2022/09/12 08:06:08;;;;;;;38.25;24.77;;;;;;;17.13;87.10;101640.16;5055101;28;20144;-87
2022/09/12 08:08:35;;;;;;;37.88;24.95;;;;;;;17.25;85.31;101641.81;5055269;28;20084;-89
2022/09/12 08:11:04;;;;;;;32.83;24.92;;;;;;;17.44;84.10;101637.00;5055437;28;20046;-80
2022/09/12 08:13:33;;;;;;;35.38;24.17;;;;;;;17.65;83.72;101636.63;5053763;28;20045;-80
2022/09/12 08:16:03;;;;;;;31.90;23.38;;;;;;;18.21;81.46;101634.72;5053593;28;20042;-85
2022/09/12 08:18:31;;;;;;;32.20;22.55;;;;;;;18.64;80.18;101632.31;5057587;28;20045;-89
2022/09/12 08:20:59;;;;;;;34.95;22.40;;;;;;;18.90;77.78;101640.41;5073890;28;20072;-90
2022/09/12 08:23:27;;;;;;;31.52;22.52;;;;;;;19.14;76.95;101649.00;5058220;28;20121;-89
2022/09/12 08:25:58;;;;;;;33.03;21.40;;;;;;;19.42;76.58;101643.09;5058844;28;20105;-87
2022/09/12 08:28:31;;;;;;;35.50;22.73;;;;;;;19.59;75.24;101642.00;5058853;28;20069;-90
2022/09/12 08:31:06;;;;;;;30.00;22.00;;;;;;;19.77;74.97;101638.22;5058285;28;20120;-89
2022/09/12 08:33:33;;;;;;;26.25;19.70;;;;;;;19.93;74.04;101643.00;5055892;28;20073;-89
2022/09/12 08:36:03;;;;;;;32.53;21.30;;;;;;;20.17;73.93;101641.88;5056394;28;20052;-89
2022/09/12 08:38:29;;;;;;;27.35;20.10;;;;;;;20.37;71.79;101639.00;5055952;28;20041;-89
2022/09/12 08:41:13;;;;;;;26.88;19.00;;;;;;;20.73;72.82;101642.09;5057976;28;20904;-89
2022/09/12 08:43:59;;;;;;;27.17;20.92;;;;;;;20.69;70.94;101645.03;5054453;28;20120;-88
2022/09/12 08:47:04;;;;;;;22.52;19.05;;;;;;;20.87;70.86;101641.88;5052046;28;20056;-87
2022/09/12 08:49:32;;;;;;;26.00;19.17;;;;;;;20.61;69.23;101644.03;5037229;28;20061;-89
2022/09/12 08:52:04;;;;;;;30.17;18.85;;;;;;;20.67;69.42;101641.34;5054077;28;20045;-87
2022/09/12 08:54:32;;;;;;;27.48;20.38;;;;;;;20.82;69.23;101644.56;5053602;28;20128;-80
2022/09/12 08:57:02;;;;;;;25.80;19.25;;;;;;;21.03;69.46;101645.84;5052032;28;20637;-82
2022/09/12 08:59:38;;;;;;;29.70;18.92;;;;;;;21.16;67.83;101646.09;5053405;28;20125;-83
2022/09/12 09:02:44;;;;;;;22.92;18.77;;;;;;;21.44;68.04;101632.59;5051868;28;20124;-80
2022/09/12 09:05:29;;;;;;;29.35;18.13;;;;;;;21.52;68.06;101633.56;5053070;28;20046;-81
2022/09/12 09:08:20;;;;;;;23.10;17.83;;;;;;;21.77;67.01;101629.06;5053473;28;20251;-81
2022/09/12 09:11:11;;;;;;;22.75;17.48;;;;;;;21.95;64.39;101623.13;5053327;28;20046;-80
2022/09/12 09:17:11;;;;;;;21.85;17.52;;;;;;;21.92;64.76;101626.09;5051820;28;20762;-88
2022/09/12 09:19:48;;;;;;;20.35;17.65;;;;;;;21.91;63.55;101619.94;5051706;28;20140;-88
2022/09/12 09:22:35;;;;;;;23.55;17.95;;;;;;;22.04;64.62;101615.97;5053989;28;20611;-87
2022/09/12 09:25:10;;;;;;;26.05;17.80;;;;;;;22.11;63.55;101616.19;5054362;28;20046;-87
2022/09/12 09:27:50;;;;;;;23.75;16.38;;;;;;;22.24;63.46;101610.97;5055639;28;20051;-92
2022/09/12 09:30:20;;;;;;;22.85;16.13;;;;;;;22.49;62.56;101617.25;5054889;28;20451;-91
2022/09/12 09:32:54;;;;;;;20.67;16.85;;;;;;;22.63;62.65;101610.75;5060716;28;20045;-91
2022/09/12 09:35:43;;;;;;;17.35;15.27;;;;;;;22.72;62.82;101608.97;5070715;28;20065;-91
2022/09/12 09:38:43;;;;;;;20.40;15.45;;;;;;;22.95;62.49;101608.34;5073745;28;20148;-93
2022/09/12 09:41:26;;;;;;;16.20;14.50;;;;;;;23.23;60.30;101610.09;5075192;28;20128;-93
2022/09/12 09:43:52;;;;;;;17.67;15.32;;;;;;;23.29;59.11;101613.50;5075431;28;20056;-94
2022/09/12 09:46:19;;;;;;;17.02;14.77;;;;;;;23.16;61.29;101610.66;5076816;28;20045;-95
2022/09/12 09:48:49;;;;;;;19.80;14.63;;;;;;;23.45;60.64;101617.31;5074434;28;20488;-81
2022/09/12 09:51:21;;;;;;;17.35;15.45;;;;;;;23.50;59.83;101608.38;5073326;28;20044;-80
2022/09/12 09:53:53;;;;;;;15.77;14.15;;;;;;;23.39;60.63;101605.75;5073305;28;20516;-81
2022/09/12 09:56:39;;;;;;;44.28;14.63;;;;;;;23.51;60.22;101602.44;5072989;28;20126;-79
2022/09/12 09:59:11;;;;;;;19.38;16.38;;;;;;;23.62;59.35;101596.16;5073223;28;20053;-79
2022/09/12 10:01:50;;;;;;;19.05;15.00;;;;;;;23.39;59.13;101592.91;5072526;28;20045;-78
2022/09/12 10:04:23;;;;;;;19.08;15.20;;;;;;;23.41;59.79;101593.13;5073062;28;20045;-85
2022/09/12 10:06:51;;;;;;;19.08;17.17;;;;;;;23.54;60.46;101592.56;5073225;28;20043;-80
2022/09/12 10:09:21;;;;;;;17.98;14.38;;;;;;;23.74;59.65;101586.63;5072395;28;20049;-78
2022/09/12 10:11:49;;;;;;;16.92;14.02;;;;;;;23.73;58.63;101596.03;5073047;28;20084;-80
2022/09/12 10:14:36;;;;;;;19.92;14.85;;;;;;;23.73;58.80;101587.16;5072998;28;20125;-80
2022/09/12 10:17:21;;;;;;;19.88;15.80;;;;;;;23.67;58.84;101581.78;5071738;28;20120;-79
2022/09/12 10:19:48;;;;;;;16.13;14.45;;;;;;;23.56;58.85;101579.94;5072294;28;20049;-77
2022/09/12 10:22:34;;;;;;;15.10;13.50;;;;;;;23.51;58.60;101577.97;5072592;28;20045;-79
2022/09/12 10:25:01;;;;;;;19.65;12.93;;;;;;;23.61;59.69;101570.22;5072425;28;20120;-79
2022/09/12 10:27:31;;;;;;;15.82;11.95;;;;;;;23.66;58.79;101569.44;5072419;28;20040;-78
2022/09/12 10:30:00;;;;;;;13.23;11.93;;;;;;;23.40;58.14;101571.91;5072569;28;20073;-79
2022/09/12 10:32:42;;;;;;;15.38;13.45;;;;;;;23.45;58.76;101558.28;5054360;28;20131;-78
2022/09/12 10:35:27;;;;;;;13.02;11.75;;;;;;;23.40;58.61;101563.75;5072728;28;20056;-78
2022/09/12 10:37:53;;;;;;;14.10;11.93;;;;;;;23.44;57.78;101559.53;5073298;28;20116;-79
2022/09/12 10:40:26;;;;;;;19.42;12.38;;;;;;;23.32;59.64;101558.16;5071651;28;20069;-78
2022/09/12 10:42:56;;;;;;;16.27;12.45;;;;;;;23.28;58.94;101552.25;5072390;28;20118;-79
2022/09/12 10:45:25;;;;;;;13.38;12.18;;;;;;;23.39;59.38;101543.28;5071899;28;20088;-79
2022/09/12 10:47:53;;;;;;;12.80;11.43;;;;;;;23.39;58.64;101549.44;5072329;28;20045;-79
2022/09/12 10:50:22;;;;;;;14.30;12.43;;;;;;;23.46;57.69;101543.44;5072438;28;20060;-79
2022/09/12 10:52:49;;;;;;;11.82;10.70;;;;;;;23.49;59.44;101539.72;5072210;28;20049;-80
2022/09/12 10:55:16;;;;;;;11.70;10.60;;;;;;;23.63;58.01;101532.41;5072578;28;20047;-83
2022/09/12 10:57:57;;;;;;;11.98;10.15;;;;;;;23.66;59.52;101533.34;5071795;28;20041;-79
2022/09/12 11:00:29;;;;;;;;;;;;;;;23.75;59.92;101536.47;5071658;28;20432;-79
2022/09/12 11:03:20;;;;;;;8.95;8.20;;;;;;;23.61;57.46;101529.47;5072363;28;20450;-80
2022/09/12 11:05:54;;;;;;;8.80;8.10;;;;;;;23.51;57.16;101525.59;5072465;28;20045;-83
2022/09/12 11:08:47;;;;;;;8.57;7.85;;;;;;;23.57;58.24;101526.31;5071519;28;20041;-85
2022/09/12 11:11:31;;;;;;;9.63;8.13;;;;;;;23.53;57.96;101523.88;5075786;28;20049;-84
2022/09/12 11:14:20;;;;;;;8.00;7.30;;;;;;;23.67;58.06;101532.13;5076059;28;20045;-85
2022/09/12 11:17:06;;;;;;;6.68;5.97;;;;;;;23.72;55.95;101534.03;5091587;28;20084;-85
2022/09/12 11:19:41;;;;;;;6.20;5.50;;;;;;;23.66;56.42;101523.22;5075571;28;20657;-85
2022/09/12 11:22:35;;;;;;;6.07;5.50;;;;;;;23.55;57.44;101529.53;5075207;28;20581;-84
2022/09/12 11:25:40;;;;;;;6.47;5.97;;;;;;;23.45;57.08;101527.66;5075695;28;20080;-84
2022/09/12 11:28:27;;;;;;;8.27;6.30;;;;;;;23.53;56.48;101523.88;5075748;28;20041;-84
2022/09/12 11:31:19;;;;;;;5.88;5.38;;;;;;;23.69;55.75;101522.19;5075489;28;20132;-84
2022/09/12 11:33:52;;;;;;;5.40;4.80;;;;;;;23.84;56.64;101522.53;5075675;28;20049;-84
2022/09/12 11:36:31;;;;;;;6.15;5.75;;;;;;;23.75;55.31;101520.16;5073586;28;20198;-84
2022/09/12 11:39:12;;;;;;;5.45;4.95;;;;;;;23.72;56.08;101525.88;5075505;28;20132;-84
2022/09/12 11:41:46;;;;;;;5.70;5.22;;;;;;;23.69;55.67;101518.75;5074756;28;20043;-84
2022/09/12 11:44:16;;;;;;;4.88;4.50;;;;;;;23.66;56.44;101519.78;5075330;28;20124;-84
2022/09/12 11:46:43;;;;;;;5.25;4.65;;;;;;;23.74;56.24;101512.50;5073565;28;20067;-84